createdAt,value
2018-12-18T00:00:48.780Z,12.47
2018-12-18T00:09:22.159Z,15.30
2018-12-18T00:14:56.289Z,12.20
2018-12-18T00:17:29.593Z,19.20
2018-12-18T00:20:00.495Z,19.23
2018-12-18T00:22:31.364Z,18.60
2018-12-18T00:25:05.460Z,13.47
2018-12-18T00:27:38.971Z,14.17
2018-12-18T00:33:16.779Z,14.60
2018-12-18T00:35:47.885Z,20.50
2018-12-18T00:38:21.599Z,16.70
2018-12-18T00:40:54.927Z,21.43
2018-12-18T00:43:25.717Z,29.07
2018-12-18T00:46:07.627Z,26.77
2018-12-18T00:48:41.456Z,21.60
2018-12-18T00:51:23.801Z,23.13
2018-12-18T00:53:54.525Z,19.63
2018-12-18T00:56:28.952Z,26.27
2018-12-18T01:02:04.672Z,25.07
2018-12-18T01:04:45.309Z,19.53
2018-12-18T01:07:19.104Z,20.53
2018-12-18T01:10:06.780Z,20.13
2018-12-18T01:12:36.033Z,24.87
2018-12-18T01:18:09.770Z,26.90
2018-12-18T01:20:43.221Z,25.37
2018-12-18T01:23:13.785Z,32.20
2018-12-18T01:25:43.085Z,20.53
2018-12-18T01:28:16.502Z,21.67
2018-12-18T01:30:51.341Z,22.00
2018-12-18T01:33:21.955Z,16.03
2018-12-18T01:35:55.382Z,16.90
2018-12-18T01:38:39.209Z,18.53
2018-12-18T01:47:00.701Z,15.23
2018-12-18T01:49:28.139Z,17.63
2018-12-18T01:52:02.092Z,16.70
2018-12-18T01:54:33.687Z,16.70
2018-12-18T01:57:04.777Z,14.97
2018-12-18T01:59:38.280Z,15.30
2018-12-18T02:02:15.495Z,15.53
2018-12-18T02:04:49.266Z,16.63
2018-12-18T02:07:19.845Z,16.70
2018-12-18T02:09:53.448Z,15.97
2018-12-18T02:12:22.510Z,12.17
2018-12-18T02:14:55.760Z,12.57
2018-12-18T02:17:29.114Z,12.63
2018-12-18T02:25:13.041Z,12.43
2018-12-18T02:27:42.187Z,15.50
2018-12-18T02:30:13.102Z,12.87
2018-12-18T02:32:51.019Z,15.43
2018-12-18T02:35:21.852Z,12.00
2018-12-18T02:37:52.231Z,10.27
2018-12-18T02:40:19.662Z,16.00
2018-12-18T02:42:47.106Z,19.87
2018-12-18T02:45:23.042Z,7.77
2018-12-18T02:47:51.905Z,8.83
2018-12-18T02:50:22.475Z,9.27
2018-12-18T02:52:53.643Z,16.97
2018-12-18T02:55:21.497Z,13.90
2018-12-18T02:57:50.304Z,10.37
2018-12-18T03:00:24.331Z,15.18
2018-12-18T03:02:55.252Z,10.43
2018-12-18T03:05:28.561Z,7.37
2018-12-18T03:08:01.978Z,13.20
2018-12-18T03:10:35.367Z,8.70
2018-12-18T03:13:08.645Z,12.00
2018-12-18T03:15:42.219Z,13.60
2018-12-18T03:18:12.821Z,10.13
2018-12-18T03:20:48.393Z,10.40
2018-12-18T03:23:21.926Z,11.53
2018-12-18T03:25:55.045Z,9.27
2018-12-18T03:28:32.270Z,12.37
2018-12-18T03:31:03.348Z,9.60
2018-12-18T03:33:36.559Z,11.87
2018-12-18T03:36:10.173Z,10.33
2018-12-18T03:38:50.503Z,13.47
2018-12-18T03:41:21.640Z,12.33
2018-12-18T03:43:54.914Z,12.27
2018-12-18T03:46:25.711Z,8.73
2018-12-18T03:49:01.010Z,11.73
2018-12-18T03:51:35.539Z,9.07
2018-12-18T03:54:09.435Z,8.60
2018-12-18T03:59:41.135Z,17.70
2018-12-18T04:02:12.002Z,16.63
2018-12-18T04:04:42.576Z,12.17
2018-12-18T04:07:16.335Z,13.43
2018-12-18T04:09:47.082Z,17.03
2018-12-18T04:12:24.106Z,14.60
2018-12-18T04:14:57.963Z,20.30
2018-12-18T04:17:28.508Z,10.83
2018-12-18T04:20:02.047Z,16.17
2018-12-18T04:22:35.764Z,15.43
2018-12-18T04:25:06.496Z,14.60
2018-12-18T04:27:39.821Z,17.67
2018-12-18T04:30:07.317Z,21.10
2018-12-18T04:32:34.751Z,26.40
2018-12-18T04:35:05.792Z,16.13
2018-12-18T04:37:36.300Z,15.73
2018-12-18T04:40:24.220Z,20.07
2018-12-18T04:42:58.168Z,20.70
2018-12-18T04:45:28.788Z,15.33
2018-12-18T04:48:15.558Z,18.50
2018-12-18T04:50:46.013Z,16.80
2018-12-18T04:53:19.358Z,19.57
2018-12-18T04:55:53.472Z,16.80
2018-12-18T04:58:25.268Z,19.47
2018-12-18T05:01:03.565Z,12.47
2018-12-18T05:03:32.915Z,20.03
2018-12-18T05:06:14.627Z,19.77
2018-12-18T05:14:29.730Z,17.47
2018-12-18T05:17:04.048Z,23.00
2018-12-18T05:19:51.079Z,19.97
2018-12-18T05:28:10.296Z,21.90
2018-12-18T05:30:39.153Z,19.73
2018-12-18T05:36:05.464Z,20.53
2018-12-18T05:44:25.588Z,17.10
2018-12-18T05:46:56.037Z,15.83
2018-12-18T05:49:36.852Z,21.87
2018-12-18T05:52:20.979Z,18.10
2018-12-18T05:57:43.401Z,17.57
2018-12-18T06:06:00.566Z,17.87
2018-12-18T06:17:06.442Z,23.77
2018-12-18T06:19:33.873Z,22.90
2018-12-18T06:22:01.313Z,18.77
2018-12-18T06:24:34.453Z,17.70
2018-12-18T06:27:08.064Z,18.80
2018-12-18T06:41:38.590Z,16.90
2018-12-18T06:44:12.026Z,22.57
2018-12-18T06:55:08.093Z,23.20
2018-12-18T06:57:42.220Z,27.07
2018-12-18T07:00:15.885Z,23.87
2018-12-18T07:05:46.359Z,20.00
2018-12-18T07:08:31.542Z,22.27
2018-12-18T07:11:05.277Z,19.40
2018-12-18T07:16:27.740Z,28.13
2018-12-18T07:19:02.402Z,17.13
2018-12-18T07:21:33.270Z,22.70
2018-12-18T07:24:14.119Z,20.40
2018-12-18T07:26:43.513Z,25.73
2018-12-18T07:29:15.803Z,26.30
2018-12-18T07:31:47.023Z,25.23
2018-12-18T07:45:55.361Z,25.23
2018-12-18T07:48:42.694Z,22.87
2018-12-18T07:54:13.409Z,29.40
2018-12-18T08:11:22.691Z,23.70
2018-12-18T08:25:30.095Z,27.50
2018-12-18T08:45:34.587Z,11.07
2018-12-18T08:48:08.262Z,14.93
2018-12-18T08:50:38.861Z,14.03
2018-12-18T08:53:28.675Z,15.00
2018-12-18T08:58:53.213Z,8.77
2018-12-18T09:01:39.883Z,7.73
2018-12-18T09:04:13.006Z,6.90
2018-12-18T09:06:53.211Z,5.90
2018-12-18T09:21:08.132Z,7.17
2018-12-18T09:29:25.498Z,7.00
2018-12-18T09:34:59.477Z,6.07
2018-12-18T09:43:29.013Z,5.67
2018-12-18T09:49:18.424Z,4.93
2018-12-18T09:51:49.102Z,5.53
2018-12-18T09:54:30.114Z,4.00
2018-12-18T10:05:43.515Z,5.37
2018-12-18T10:11:19.888Z,5.77
2018-12-18T10:16:41.879Z,5.53
2018-12-18T10:22:20.284Z,4.40
2018-12-18T10:24:51.884Z,7.83
2018-12-18T10:30:18.176Z,6.00
2018-12-18T10:32:55.504Z,8.03
2018-12-18T10:35:40.802Z,3.10
2018-12-18T10:41:07.643Z,5.53
2018-12-18T11:15:39.048Z,5.73
2018-12-18T11:18:13.380Z,4.13
2018-12-18T11:20:46.808Z,4.50
2018-12-18T11:23:24.443Z,6.67
2018-12-18T11:25:59.997Z,6.87
2018-12-18T11:28:35.593Z,7.57
2018-12-18T11:37:00.273Z,5.77
2018-12-18T11:53:57.427Z,5.63
2018-12-18T11:56:31.919Z,6.73
2018-12-18T11:59:07.401Z,5.83
2018-12-18T12:04:37.678Z,2.77
2018-12-18T12:18:50.836Z,5.93
2018-12-18T12:21:21.702Z,3.37
2018-12-18T12:29:43.015Z,5.10
2018-12-18T12:32:26.983Z,4.63
2018-12-18T12:35:08.591Z,9.17
2018-12-18T12:46:35.524Z,4.63
2018-12-18T13:00:45.463Z,6.30
2018-12-18T13:06:11.638Z,6.37
2018-12-18T13:14:31.271Z,4.93
2018-12-18T13:17:04.770Z,5.30
2018-12-18T13:22:41.860Z,3.77
2018-12-18T13:25:11.745Z,5.23
2018-12-18T13:27:42.626Z,2.13
2018-12-18T13:39:05.131Z,4.83
2018-12-18T13:47:28.017Z,4.60
2018-12-18T13:55:47.569Z,3.03
2018-12-18T13:58:18.160Z,2.23
2018-12-18T14:00:45.616Z,4.77
2018-12-18T14:03:13.064Z,3.90
2018-12-18T14:05:48.444Z,5.40
2018-12-18T14:14:08.178Z,3.10
2018-12-18T14:16:39.358Z,5.30
2018-12-18T14:19:25.962Z,5.53
2018-12-18T14:21:59.910Z,4.23
2018-12-18T14:24:30.582Z,2.43
2018-12-18T14:30:18.312Z,5.37
2018-12-18T14:32:49.517Z,2.40
2018-12-18T14:35:27.019Z,3.27
2018-12-18T14:38:09.033Z,3.03
2018-12-18T14:40:42.753Z,5.27
2018-12-18T14:43:13.508Z,3.93
2018-12-18T14:45:42.777Z,2.70
2018-12-18T14:48:13.359Z,3.40
2018-12-18T14:50:46.621Z,2.50
2018-12-18T14:53:17.425Z,2.87
2018-12-18T14:55:57.519Z,4.20
2018-12-18T14:58:39.865Z,3.17
2018-12-18T15:01:11.128Z,3.80
2018-12-18T15:03:44.426Z,3.67
2018-12-18T15:06:17.675Z,1.87
2018-12-18T15:08:51.327Z,3.50
2018-12-18T15:11:22.025Z,4.57
2018-12-18T15:13:52.988Z,5.80
2018-12-18T15:16:27.037Z,2.80
2018-12-18T15:18:57.732Z,2.47
2018-12-18T15:21:29.046Z,3.53
2018-12-18T15:24:06.416Z,3.13
2018-12-18T15:26:37.075Z,4.73
2018-12-18T15:29:07.473Z,3.97
2018-12-18T15:31:38.033Z,4.83
2018-12-18T15:34:08.782Z,4.23
2018-12-18T15:36:41.958Z,4.20
2018-12-18T15:39:12.930Z,2.90
2018-12-18T15:41:46.423Z,5.27
2018-12-18T15:44:17.329Z,3.67
2018-12-18T15:46:48.037Z,5.70
2018-12-18T15:49:24.006Z,6.47
2018-12-18T15:51:52.836Z,4.10
2018-12-18T15:54:23.600Z,14.10
2018-12-18T15:56:54.200Z,6.47
2018-12-18T15:59:24.985Z,6.50
2018-12-18T16:01:58.364Z,5.87
2018-12-18T16:04:31.630Z,6.23
2018-12-18T16:07:02.467Z,5.27
2018-12-18T16:09:35.995Z,5.97
2018-12-18T16:12:13.396Z,7.70
2018-12-18T16:14:47.178Z,4.17
2018-12-18T16:17:20.901Z,5.77
2018-12-18T16:19:54.452Z,7.27
2018-12-18T16:22:27.984Z,5.03
2018-12-18T16:24:57.079Z,9.63
2018-12-18T16:27:30.211Z,9.57
2018-12-18T16:30:04.355Z,8.87
2018-12-18T16:32:33.680Z,7.80
2018-12-18T16:35:02.589Z,6.17
2018-12-18T16:37:30.028Z,5.33
2018-12-18T16:40:04.872Z,7.12
2018-12-18T16:42:39.504Z,7.07
2018-12-18T16:45:12.915Z,7.47
2018-12-18T16:47:43.384Z,5.33
2018-12-18T16:53:32.803Z,8.07
2018-12-18T16:56:01.764Z,7.37
2018-12-18T16:58:32.324Z,7.33
2018-12-18T17:01:02.861Z,9.17
2018-12-18T17:03:36.155Z,8.13
2018-12-18T17:06:09.899Z,12.23
2018-12-18T17:08:43.603Z,10.00
2018-12-18T17:11:16.908Z,12.33
2018-12-18T17:13:47.540Z,9.83
2018-12-18T17:16:18.934Z,10.63
2018-12-18T17:18:49.416Z,12.07
2018-12-18T17:21:22.796Z,9.47
2018-12-18T17:24:14.813Z,11.03
2018-12-18T17:26:46.710Z,13.63
2018-12-18T17:29:20.056Z,8.50
2018-12-18T17:31:53.496Z,11.00
2018-12-18T17:34:26.919Z,11.07
2018-12-18T17:37:00.549Z,12.63
2018-12-18T17:39:31.167Z,17.87
2018-12-18T17:42:04.483Z,23.37
2018-12-18T17:44:35.506Z,16.40
2018-12-18T17:47:15.937Z,13.33
2018-12-18T17:49:43.462Z,15.07
2018-12-18T17:52:10.904Z,11.22
2018-12-18T17:54:38.345Z,13.50
2018-12-18T17:57:07.753Z,9.15
2018-12-18T17:59:38.762Z,13.53
2018-12-18T18:02:10.185Z,10.80
2018-12-18T18:04:41.698Z,8.93
2018-12-18T18:07:15.531Z,11.03
2018-12-18T18:09:46.409Z,10.97
2018-12-18T18:12:19.667Z,10.27
2018-12-18T18:14:54.224Z,8.43
2018-12-18T18:17:25.197Z,9.80
2018-12-18T18:19:56.683Z,10.20
2018-12-18T18:22:27.962Z,9.87
2018-12-18T18:25:01.436Z,11.70
2018-12-18T18:27:34.831Z,16.03
2018-12-18T18:30:11.975Z,12.70
2018-12-18T18:32:45.734Z,14.07
2018-12-18T18:35:19.151Z,16.20
2018-12-18T18:37:52.858Z,13.77
2018-12-18T18:40:23.772Z,13.90
2018-12-18T18:42:54.512Z,15.83
2018-12-18T18:45:27.703Z,15.50
2018-12-18T18:47:58.637Z,36.27
2018-12-18T18:50:29.272Z,37.77
2018-12-18T18:52:59.964Z,35.13
2018-12-18T18:55:37.440Z,19.77
2018-12-18T18:58:10.979Z,23.33
2018-12-18T19:00:39.823Z,21.23
2018-12-18T19:03:17.237Z,16.27
2018-12-18T19:05:52.839Z,22.67
2018-12-18T19:08:28.929Z,17.80
2018-12-18T19:10:57.684Z,16.90
2018-12-18T19:13:31.900Z,17.43
2018-12-18T19:16:05.295Z,18.23
2018-12-18T19:18:39.262Z,19.70
2018-12-18T19:21:22.184Z,18.00
2018-12-18T19:23:59.909Z,21.63
2018-12-18T19:26:34.613Z,22.50
2018-12-18T19:29:05.077Z,28.23
2018-12-18T19:31:35.490Z,26.83
2018-12-18T19:34:08.807Z,25.00
2018-12-18T19:36:43.933Z,27.83
2018-12-18T19:39:16.039Z,29.90
2018-12-18T19:41:49.611Z,24.50
2018-12-18T19:44:20.401Z,23.57
2018-12-18T19:46:51.079Z,23.80
2018-12-18T19:49:19.677Z,30.90
2018-12-18T19:51:52.923Z,45.80
2018-12-18T19:54:26.660Z,54.13
2018-12-18T19:57:00.179Z,27.80
2018-12-18T19:59:34.878Z,28.43
2018-12-18T20:02:08.392Z,32.90
2018-12-18T20:04:46.122Z,28.07
2018-12-18T20:07:16.957Z,29.30
2018-12-18T20:09:50.910Z,34.60
2018-12-18T20:12:21.687Z,34.77
2018-12-18T20:14:55.450Z,27.63
2018-12-18T20:17:29.019Z,26.60
2018-12-18T20:19:59.640Z,28.00
2018-12-18T20:22:34.963Z,27.23
2018-12-18T20:25:06.030Z,26.27
2018-12-18T20:27:39.595Z,27.23
2018-12-18T20:30:08.494Z,24.53
2018-12-18T20:32:48.292Z,26.52
2018-12-18T20:35:17.206Z,26.50
2018-12-18T20:37:52.684Z,30.63
2018-12-18T20:40:26.449Z,32.63
2018-12-18T20:42:59.849Z,24.27
2018-12-18T20:45:43.978Z,31.87
2018-12-18T20:48:17.983Z,34.97
2018-12-18T20:50:51.686Z,30.73
2018-12-18T20:53:20.467Z,30.30
2018-12-18T20:55:51.804Z,35.92
2018-12-18T20:58:25.267Z,29.37
2018-12-18T21:00:58.898Z,27.60
2018-12-18T21:03:29.732Z,29.47
2018-12-18T21:06:03.714Z,29.13
2018-12-18T21:08:36.051Z,24.90
2018-12-18T21:11:06.794Z,21.13
2018-12-18T21:13:40.199Z,30.27
2018-12-18T21:16:11.802Z,34.33
2018-12-18T21:18:49.583Z,45.37
2018-12-18T21:21:18.525Z,30.57
2018-12-18T21:23:49.047Z,26.63
2018-12-18T21:26:24.661Z,28.27
2018-12-18T21:28:56.022Z,26.17
2018-12-18T21:31:29.209Z,32.27
2018-12-18T21:34:02.771Z,23.47
2018-12-18T21:36:36.236Z,23.83
2018-12-18T21:39:10.538Z,26.13
2018-12-18T21:41:44.304Z,24.83
2018-12-18T21:44:17.918Z,24.13
2018-12-18T21:47:02.043Z,25.40
2018-12-18T21:49:36.198Z,26.60
2018-12-18T21:52:06.859Z,28.67
2018-12-18T21:54:37.838Z,18.00
2018-12-18T21:57:11.172Z,25.17
2018-12-18T21:59:44.743Z,22.40
2018-12-18T22:02:18.469Z,16.87
2018-12-18T22:04:51.779Z,24.50
2018-12-18T22:07:22.696Z,18.00
2018-12-18T22:09:55.854Z,16.83
2018-12-18T22:12:26.956Z,24.53
2018-12-18T22:15:16.212Z,18.07
2018-12-18T22:17:47.416Z,12.63
2018-12-18T22:20:16.109Z,14.93
2018-12-18T22:22:46.776Z,13.62
2018-12-18T22:25:17.142Z,15.80
2018-12-18T22:27:50.709Z,17.43
2018-12-18T22:30:26.280Z,17.50
2018-12-18T22:33:03.984Z,17.27
2018-12-18T22:35:38.083Z,17.57
2018-12-18T22:38:11.554Z,13.10
2018-12-18T22:40:43.528Z,13.03
2018-12-18T22:43:14.189Z,9.20
2018-12-18T22:45:47.517Z,9.40
2018-12-18T22:51:16.338Z,8.23
2018-12-18T22:53:48.045Z,5.13
2018-12-18T22:56:21.460Z,6.63
2018-12-18T22:58:55.166Z,7.43
2018-12-18T23:01:33.973Z,7.23
2018-12-18T23:04:17.704Z,6.57
2018-12-18T23:12:53.454Z,5.23
2018-12-18T23:15:26.868Z,5.20
2018-12-18T23:17:57.761Z,5.07
2018-12-18T23:20:35.365Z,7.33
2018-12-18T23:23:09.043Z,7.20
2018-12-18T23:28:39.220Z,6.27
2018-12-18T23:34:04.401Z,7.40
2018-12-18T23:36:50.970Z,7.47
2018-12-18T23:39:28.187Z,7.60
2018-12-18T23:47:47.323Z,6.77
2018-12-18T23:50:20.631Z,7.17
2018-12-18T23:52:54.098Z,7.93
